Time;durP1;ratioP1;P1;durP2;ratioP2;P2;SDS_P1;SDS_P2;PMS_P1;PMS_P2;Temp;Humidity;BMP_temperature;BMP_pressure;BME280_temperature;BME280_humidity;BME280_pressure;Samples;Min_cycle;Max_cycle;Signal;HPM_P1;HPM_P2
2021/08/10 00:00:15;;;;;;;2.58;2.30;;;;;;;17.12;70.73;101330.44;676453;29;59316;-67
2021/08/10 00:00:36;;;;;;;2.55;2.35;;;;;;;17.12;70.71;101330.44;676666;29;46337;-67
2021/08/10 00:00:57;;;;;;;2.67;2.30;;;;;;;17.13;70.54;101328.53;677685;29;22402;-67
2021/08/10 00:01:18;;;;;;;2.90;2.40;;;;;;;17.13;70.71;101329.38;677699;29;21526;-67
2021/08/10 00:01:40;;;;;;;2.67;2.28;;;;;;;17.14;70.62;101325.59;677915;29;23434;-66
2021/08/10 00:02:02;;;;;;;2.58;2.15;;;;;;;17.12;70.64;101327.69;676981;29;44859;-67
2021/08/10 00:02:23;;;;;;;2.20;1.92;;;;;;;17.14;70.81;101335.69;677146;29;23502;-67
2021/08/10 00:02:45;;;;;;;2.23;1.87;;;;;;;17.13;70.56;101328.53;677230;29;44404;-67
2021/08/10 00:03:06;;;;;;;2.42;2.25;;;;;;;17.12;70.60;101335.88;676381;29;67629;-67
2021/08/10 00:03:27;;;;;;;3.20;2.33;;;;;;;17.14;70.85;101331.06;676870;29;45282;-66
2021/08/10 00:03:49;;;;;;;2.65;2.20;;;;;;;17.13;70.78;101340.28;677989;29;21699;-65
2021/08/10 00:04:11;;;;;;;2.15;1.95;;;;;;;17.11;70.59;101326.88;676624;29;44398;-65
2021/08/10 00:04:32;;;;;;;2.20;2.10;;;;;;;17.13;70.75;101334.81;676854;29;44372;-65
2021/08/10 00:04:53;;;;;;;2.35;2.25;;;;;;;17.14;70.75;101331.06;676200;29;22424;-66
2021/08/10 00:05:15;;;;;;;2.67;2.30;;;;;;;17.14;70.73;101330.22;678392;29;1324;-66
2021/08/10 00:05:37;;;;;;;3.08;2.20;;;;;;;17.11;70.67;101329.59;678281;29;22467;-66
2021/08/10 00:05:58;;;;;;;3.40;2.25;;;;;;;17.11;70.56;101331.47;677664;29;44417;-66
2021/08/10 00:06:19;;;;;;;2.80;2.47;;;;;;;17.11;70.71;101332.34;677578;29;21343;-66
2021/08/10 00:06:40;;;;;;;2.42;2.22;;;;;;;17.11;70.78;101332.34;678025;29;21278;-66
2021/08/10 00:07:02;;;;;;;3.83;2.47;;;;;;;17.11;70.83;101332.34;678782;29;1358;-66
2021/08/10 00:07:24;;;;;;;3.30;2.30;;;;;;;17.11;70.64;101337.78;676206;29;64542;-66
2021/08/10 00:07:45;;;;;;;2.60;2.40;;;;;;;17.11;70.83;101329.59;676869;29;28163;-66
2021/08/10 00:08:06;;;;;;;3.05;2.45;;;;;;;17.10;70.80;101327.91;677932;29;7904;-66
2021/08/10 00:08:28;;;;;;;2.97;2.58;;;;;;;17.11;70.71;101326.00;678070;29;7154;-65
2021/08/10 00:08:49;;;;;;;2.38;2.17;;;;;;;17.11;70.69;101332.34;676903;29;46323;-65
2021/08/10 00:09:10;;;;;;;2.15;2.05;;;;;;;17.10;70.86;101327.91;678721;29;5073;-66
2021/08/10 00:09:31;;;;;;;3.17;2.30;;;;;;;17.10;70.71;101336.09;677439;29;23543;-65
2021/08/10 00:09:53;;;;;;;3.63;2.42;;;;;;;17.09;70.76;101323.50;677264;29;20174;-66
2021/08/10 00:10:14;;;;;;;2.40;2.20;;;;;;;17.11;70.71;101326.00;677084;29;45801;-66
2021/08/10 00:10:35;;;;;;;2.50;2.30;;;;;;;17.11;70.81;101324.16;677419;29;21506;-66
2021/08/10 00:10:56;;;;;;;2.60;2.40;;;;;;;17.11;70.84;101326.88;677683;29;22469;-67
2021/08/10 00:11:19;;;;;;;2.50;2.30;;;;;;;17.11;70.99;101323.28;677876;29;22405;-66
2021/08/10 00:11:40;;;;;;;2.50;2.30;;;;;;;17.09;71.08;101331.69;676282;29;54200;-66
2021/08/10 00:12:01;;;;;;;2.45;2.25;;;;;;;17.09;70.71;101317.19;678054;29;19973;-66
2021/08/10 00:12:23;;;;;;;2.78;2.58;;;;;;;17.09;70.85;101323.50;677116;29;23409;-66
2021/08/10 00:12:45;;;;;;;2.53;2.33;;;;;;;17.08;70.94;101331.88;678394;29;5459;-66
2021/08/10 00:13:06;;;;;;;2.55;2.30;;;;;;;17.07;71.05;101331.06;677184;29;46299;-66
2021/08/10 00:13:28;;;;;;;3.50;2.40;;;;;;;17.08;70.83;101324.56;676008;29;44775;-67
2021/08/10 00:13:50;;;;;;;2.70;2.47;;;;;;;17.09;70.98;101330.84;673056;29;2871;-66
2021/08/10 00:14:11;;;;;;;3.22;2.33;;;;;;;17.08;70.84;101331.88;669093;29;45633;-65
2021/08/10 00:14:32;;;;;;;2.70;2.50;;;;;;;17.08;70.68;101332.75;669366;29;22546;-65
2021/08/10 00:14:55;;;;;;;3.50;2.40;;;;;;;17.08;70.93;101335.47;669038;29;22352;-66
2021/08/10 00:15:16;;;;;;;2.40;2.30;;;;;;;17.07;70.95;101325.59;667915;29;92245;-65
2021/08/10 00:15:38;;;;;;;2.60;2.40;;;;;;;17.07;71.02;101331.06;673173;29;24369;-66
2021/08/10 00:15:59;;;;;;;2.60;2.40;;;;;;;17.06;70.86;101329.34;675912;29;21560;-66
2021/08/10 00:16:21;;;;;;;2.63;2.38;;;;;;;17.08;70.75;101326.41;677885;29;22415;-66
2021/08/10 00:16:42;;;;;;;2.53;2.30;;;;;;;17.06;70.85;101331.25;677312;29;46484;-66
2021/08/10 00:17:03;;;;;;;2.80;2.40;;;;;;;17.05;70.94;101337.75;676790;29;22244;-65
2021/08/10 00:17:24;;;;;;;3.28;2.25;;;;;;;17.04;70.97;101330.63;677230;29;46353;-66
2021/08/10 00:17:46;;;;;;;3.88;2.45;;;;;;;17.03;70.97;101337.94;677606;29;11740;-66
2021/08/10 00:18:08;;;;;;;3.53;2.42;;;;;;;17.03;70.81;101331.66;676490;29;45235;-66
2021/08/10 00:18:29;;;;;;;2.40;2.25;;;;;;;17.01;71.12;101328.31;677671;29;23701;-66
2021/08/10 00:18:50;;;;;;;2.60;2.40;;;;;;;17.01;70.87;101334.59;677541;29;20852;-66
2021/08/10 00:19:12;;;;;;;2.60;2.42;;;;;;;17.00;71.12;101332.91;678382;29;7705;-66
2021/08/10 00:19:33;;;;;;;5.35;2.60;;;;;;;16.99;71.20;101327.66;676294;29;44325;-65
2021/08/10 00:19:54;;;;;;;3.95;2.33;;;;;;;16.99;70.96;101330.38;677733;29;19913;-66
2021/08/10 00:20:15;;;;;;;2.50;2.30;;;;;;;16.98;71.21;101331.44;677650;29;19070;-65
2021/08/10 00:20:37;;;;;;;2.30;2.20;;;;;;;16.99;71.21;101330.38;677107;29;6600;-66
2021/08/10 00:20:58;;;;;;;2.67;2.47;;;;;;;16.98;71.26;101328.72;676285;29;47290;-66
2021/08/10 00:21:19;;;;;;;2.40;2.20;;;;;;;16.97;71.23;101341.50;677780;29;23428;-66
2021/08/10 00:21:40;;;;;;;2.33;2.22;;;;;;;16.98;71.29;101336.91;676824;29;46334;-66
2021/08/10 00:22:04;;;;;;;2.47;2.33;;;;;;;16.97;71.22;101336.03;678493;29;928;-66
2021/08/10 00:22:25;;;;;;;2.40;2.20;;;;;;;16.97;71.12;101327.84;675778;29;64488;-66
2021/08/10 00:22:46;;;;;;;2.78;2.40;;;;;;;16.97;71.19;101335.22;677274;29;22564;-66
2021/08/10 00:23:07;;;;;;;6.57;2.65;;;;;;;16.97;71.04;101327.03;677819;29;18679;-66
2021/08/10 00:23:29;;;;;;;3.55;2.50;;;;;;;16.97;71.28;101327.84;674484;29;22363;-66
2021/08/10 00:23:50;;;;;;;2.95;2.75;;;;;;;16.97;71.27;101335.22;674166;29;45173;-66
2021/08/10 00:24:11;;;;;;;3.50;2.40;;;;;;;16.97;71.16;101336.03;672013;29;21524;-66
2021/08/10 00:24:32;;;;;;;3.50;2.50;;;;;;;16.96;71.19;101334.38;673127;29;5038;-66
2021/08/10 00:24:54;;;;;;;3.38;2.45;;;;;;;16.94;71.17;101333.72;672138;29;21047;-66
2021/08/10 00:25:15;;;;;;;4.50;2.47;;;;;;;16.95;71.30;101337.31;672338;29;44461;-66
2021/08/10 00:25:37;;;;;;;3.05;2.30;;;;;;;16.95;71.39;101338.16;674878;29;22348;-67
2021/08/10 00:25:58;;;;;;;3.90;2.50;;;;;;;16.93;71.41;101338.34;674615;29;42163;-67
2021/08/10 00:26:20;;;;;;;3.78;2.45;;;;;;;16.94;71.42;101331.00;677638;29;19885;-66
2021/08/10 00:26:41;;;;;;;2.70;2.50;;;;;;;16.93;71.32;101335.63;677004;29;46322;-66
2021/08/10 00:27:02;;;;;;;3.15;2.50;;;;;;;16.93;71.11;101332.06;677647;29;22577;-66
2021/08/10 00:27:23;;;;;;;3.10;2.40;;;;;;;16.92;71.23;101336.66;677751;29;11599;-66
2021/08/10 00:27:45;;;;;;;4.40;2.60;;;;;;;16.93;71.15;101338.34;677440;29;15971;-65
2021/08/10 00:28:06;;;;;;;2.60;2.38;;;;;;;16.91;71.39;101332.25;677324;29;39751;-66
2021/08/10 00:28:29;;;;;;;2.63;2.42;;;;;;;16.92;71.28;101336.66;673573;29;38534;-67
2021/08/10 00:28:51;;;;;;;2.42;2.33;;;;;;;16.92;71.17;101333.09;673050;29;43803;-66
2021/08/10 00:29:14;;;;;;;2.60;2.40;;;;;;;16.93;71.29;101332.88;672702;29;62315;-66
2021/08/10 00:29:35;;;;;;;2.55;2.35;;;;;;;16.95;71.30;101334.59;674276;29;40362;-66
2021/08/10 00:29:57;;;;;;;2.80;2.60;;;;;;;16.94;71.31;101339.19;675117;29;20005;-66
2021/08/10 00:30:19;;;;;;;2.67;2.30;;;;;;;16.93;71.02;101332.88;673181;29;33717;-66
2021/08/10 00:30:42;;;;;;;2.65;2.45;;;;;;;16.96;71.31;101330.78;671295;29;23846;-66
2021/08/10 00:31:03;;;;;;;2.47;2.28;;;;;;;16.93;71.05;101334.78;669690;29;92369;-65
2021/08/10 00:31:24;;;;;;;2.40;2.20;;;;;;;16.95;71.35;101331.84;671432;29;22423;-65
2021/08/10 00:31:46;;;;;;;2.70;2.50;;;;;;;16.95;71.35;101329.13;672719;29;1217;-66
2021/08/10 00:32:08;;;;;;;2.70;2.50;;;;;;;16.94;71.43;101331.00;668839;29;45248;-66
2021/08/10 00:32:30;;;;;;;2.63;2.42;;;;;;;16.94;71.25;101325.53;669790;29;46220;-66
2021/08/10 00:32:51;;;;;;;2.72;2.53;;;;;;;16.92;71.47;101338.56;670652;29;23482;-66
2021/08/10 00:33:13;;;;;;;3.08;2.70;;;;;;;16.91;71.40;101332.25;671217;29;8678;-66
2021/08/10 00:33:35;;;;;;;2.47;2.38;;;;;;;16.86;71.56;101325.72;670914;29;19981;-66
2021/08/10 00:33:57;;;;;;;2.95;2.63;;;;;;;16.91;71.52;101336.84;668332;29;67504;-66
2021/08/10 00:34:18;;;;;;;4.00;2.60;;;;;;;16.90;71.54;101335.19;669516;29;23542;-66
2021/08/10 00:34:39;;;;;;;2.65;2.30;;;;;;;16.89;71.58;101328.88;671776;29;23643;-66
2021/08/10 00:35:01;;;;;;;2.70;2.50;;;;;;;16.88;71.40;101332.69;674176;29;8951;-66
2021/08/10 00:35:22;;;;;;;2.80;2.60;;;;;;;16.89;71.56;101333.50;669886;29;46253;-66
2021/08/10 00:35:44;;;;;;;2.50;2.30;;;;;;;16.88;71.67;101329.09;669477;29;1972;-66
2021/08/10 00:36:06;;;;;;;2.53;2.33;;;;;;;16.86;71.55;101329.28;670073;29;46268;-66
2021/08/10 00:36:28;;;;;;;2.50;2.30;;;;;;;16.86;71.59;101333.91;670658;29;23435;-66
2021/08/10 00:36:49;;;;;;;3.55;2.40;;;;;;;16.85;71.80;101329.47;667756;29;45403;-66
2021/08/10 00:37:10;;;;;;;3.63;2.55;;;;;;;16.84;71.76;101331.34;668851;29;23502;-66
2021/08/10 00:37:32;;;;;;;3.10;2.60;;;;;;;16.85;71.76;101335.78;671774;29;1381;-66
2021/08/10 00:37:55;;;;;;;2.92;2.70;;;;;;;16.84;71.50;101334.09;673808;29;1468;-66
2021/08/10 00:38:18;;;;;;;4.28;2.60;;;;;;;16.83;71.79;101331.56;670579;29;15014;-66
2021/08/10 00:38:40;;;;;;;2.53;2.33;;;;;;;16.83;71.84;101337.00;667097;29;45085;-66
2021/08/10 00:39:04;;;;;;;2.95;2.22;;;;;;;16.83;71.87;101329.66;667834;29;2132;-66
2021/08/10 00:39:26;;;;;;;2.80;2.40;;;;;;;16.82;71.92;101329.88;664645;29;69530;-66
2021/08/10 00:39:47;;;;;;;2.93;2.73;;;;;;;16.83;71.98;101334.28;665816;29;64759;-66
2021/08/10 00:40:10;;;;;;;3.08;2.78;;;;;;;16.83;71.78;101339.75;667539;29;43365;-66
2021/08/10 00:40:33;;;;;;;3.03;2.60;;;;;;;16.83;71.67;101329.66;668298;29;57761;-65
2021/08/10 00:40:58;;;;;;;2.67;2.47;;;;;;;16.82;71.81;101335.31;671539;29;90821;-66
2021/08/10 00:41:19;;;;;;;2.80;2.60;;;;;;;16.79;71.82;101327.56;673534;29;67195;-66
2021/08/10 00:41:43;;;;;;;2.53;2.42;;;;;;;16.80;71.64;101331.97;672522;29;76681;-65
2021/08/10 00:42:06;;;;;;;2.47;2.38;;;;;;;16.81;71.72;101339.13;676615;29;22428;-66
2021/08/10 00:42:27;;;;;;;3.55;2.70;;;;;;;16.81;71.94;101330.94;672474;29;69439;-66
2021/08/10 00:42:48;;;;;;;4.32;2.47;;;;;;;16.81;71.90;101339.13;671988;29;21472;-66
2021/08/10 00:43:29;;;;;;;2.78;2.40;;;;;;;16.82;71.98;101338.03;671113;29;46405;-66
2021/08/10 00:43:52;;;;;;;2.65;2.45;;;;;;;16.82;71.69;101338.03;667482;29;137969;-66
2021/08/10 00:44:16;;;;;;;2.80;2.50;;;;;;;16.81;71.68;101331.75;667289;29;113338;-66
2021/08/10 00:44:40;;;;;;;2.53;2.40;;;;;;;16.81;71.69;101334.50;669935;29;92274;-66
2021/08/10 00:45:04;;;;;;;2.95;2.45;;;;;;;16.81;71.80;101337.22;672635;29;1132;-66
2021/08/10 00:45:31;;;;;;;2.88;2.50;;;;;;;16.80;71.82;101338.25;665953;29;136337;-66
2021/08/10 00:45:53;;;;;;;2.88;2.50;;;;;;;16.82;71.93;101338.91;667949;29;84315;-66
2021/08/10 00:46:15;;;;;;;2.63;2.42;;;;;;;16.82;71.80;101340.78;672016;29;24458;-66
2021/08/10 00:46:37;;;;;;;2.85;2.67;;;;;;;16.81;71.80;101341.84;673588;29;1139;-67
2021/08/10 00:46:59;;;;;;;3.40;2.90;;;;;;;16.81;71.70;101339.13;669600;29;20756;-66
2021/08/10 00:47:20;;;;;;;2.97;2.70;;;;;;;16.80;71.79;101337.41;667768;29;69631;-66
2021/08/10 00:47:41;;;;;;;2.60;2.40;;;;;;;16.78;71.46;101332.16;670124;29;46412;-67
2021/08/10 00:48:03;;;;;;;2.83;2.63;;;;;;;16.78;71.86;101340.34;669896;29;22416;-67
2021/08/10 00:48:28;;;;;;;2.75;2.55;;;;;;;16.78;71.62;101337.63;669398;29;115169;-67
2021/08/10 00:48:51;;;;;;;2.60;2.28;;;;;;;16.78;71.80;101337.63;669965;29;92298;-66
2021/08/10 00:49:14;;;;;;;2.80;2.60;;;;;;;16.80;71.76;101342.88;670438;29;70296;-67
2021/08/10 00:49:35;;;;;;;3.08;2.88;;;;;;;16.80;71.81;101340.97;673641;29;20264;-66
2021/08/10 00:49:58;;;;;;;2.95;2.75;;;;;;;16.80;71.69;101340.16;672658;29;23688;-66
2021/08/10 00:50:20;;;;;;;3.33;2.60;;;;;;;16.79;71.78;101339.31;670122;29;69466;-67
2021/08/10 00:50:42;;;;;;;2.85;2.50;;;;;;;16.76;71.87;101337.81;673391;29;32640;-67
2021/08/10 00:51:05;;;;;;;2.72;2.53;;;;;;;16.77;71.65;101333.22;673788;29;18300;-67
2021/08/10 00:51:29;;;;;;;2.70;2.50;;;;;;;16.77;71.51;101338.69;669097;29;92171;-67
2021/08/10 00:51:58;;;;;;;2.83;2.50;;;;;;;16.76;71.75;101346.00;665014;29;119846;-66
2021/08/10 00:52:19;;;;;;;3.03;2.70;;;;;;;16.77;71.70;101338.69;669165;29;23621;-67
2021/08/10 00:52:41;;;;;;;2.90;2.70;;;;;;;16.78;71.63;101337.63;670680;29;7468;-67
2021/08/10 00:53:04;;;;;;;2.90;2.70;;;;;;;16.79;71.71;101339.31;666991;29;44679;-67
2021/08/10 00:53:26;;;;;;;2.90;2.60;;;;;;;16.77;71.61;101330.50;668535;29;46231;-65
2021/08/10 00:53:47;;;;;;;2.70;2.50;;;;;;;16.80;71.52;101335.53;669610;29;46337;-66
2021/08/10 00:54:11;;;;;;;2.88;2.60;;;;;;;16.80;71.66;101337.41;669753;29;87690;-66
2021/08/10 00:54:38;;;;;;;2.90;2.70;;;;;;;16.80;71.70;101338.25;666310;29;136136;-65
2021/08/10 00:55:01;;;;;;;3.10;2.65;;;;;;;16.81;71.76;101345.41;669017;29;93086;-65
2021/08/10 00:55:22;;;;;;;2.72;2.53;;;;;;;16.81;71.63;101344.56;671744;29;34372;-66
2021/08/10 00:55:48;;;;;;;2.40;2.30;;;;;;;16.81;71.58;101336.38;666816;29;130145;-65
2021/08/10 00:56:10;;;;;;;3.00;2.75;;;;;;;16.80;71.60;101338.25;669965;29;22342;-65
2021/08/10 00:56:33;;;;;;;2.85;2.53;;;;;;;16.81;71.46;101342.69;666908;29;89975;-66
2021/08/10 00:56:54;;;;;;;2.63;2.38;;;;;;;16.80;71.60;101346.44;670109;29;14130;-65
2021/08/10 00:57:23;;;;;;;3.53;2.60;;;;;;;16.80;71.61;101340.97;667969;29;136097;-66
2021/08/10 00:57:44;;;;;;;2.92;2.60;;;;;;;16.80;71.46;101337.41;671302;29;46344;-66
2021/08/10 00:58:08;;;;;;;5.00;2.50;;;;;;;16.77;71.63;101335.97;668396;29;69513;-66
2021/08/10 00:58:31;;;;;;;4.97;2.70;;;;;;;16.78;71.36;101345.81;671690;29;45279;-66
2021/08/10 00:58:53;;;;;;;3.00;2.70;;;;;;;16.81;71.75;101336.38;670158;29;65641;-66
2021/08/10 00:59:14;;;;;;;2.85;2.65;;;;;;;16.79;71.65;101331.13;669964;29;46482;-66
2021/08/10 00:59:41;;;;;;;2.70;2.50;;;;;;;16.80;71.66;101340.16;666949;29;138113;-66
2021/08/10 01:00:07;;;;;;;2.90;2.60;;;;;;;16.79;71.51;101333.88;668923;29;22395;-66
2021/08/10 01:00:28;;;;;;;3.10;2.80;;;;;;;16.77;71.64;101338.69;660665;29;138024;-65
2021/08/10 01:00:50;;;;;;;3.15;2.65;;;;;;;16.77;71.51;101335.97;665564;29;16547;-66
2021/08/10 01:01:11;;;;;;;2.92;2.60;;;;;;;16.76;71.57;101337.00;669075;29;23557;-66
2021/08/10 01:01:33;;;;;;;2.70;2.50;;;;;;;16.75;71.76;101333.44;668467;29;18254;-66
2021/08/10 01:01:54;;;;;;;3.05;2.50;;;;;;;16.74;71.83;101334.47;669514;29;54389;-66
2021/08/10 01:02:15;;;;;;;3.05;2.55;;;;;;;16.75;71.63;101335.31;670009;29;22402;-66
2021/08/10 01:02:39;;;;;;;3.00;2.80;;;;;;;16.74;71.70;101330.91;668265;29;43707;-66
2021/08/10 01:03:03;;;;;;;3.00;2.70;;;;;;;16.73;71.63;101335.50;667131;29;84441;-66
2021/08/10 01:03:24;;;;;;;4.82;2.70;;;;;;;16.73;71.50;101332.78;667993;29;69485;-66
2021/08/10 01:03:46;;;;;;;2.90;2.60;;;;;;;16.73;71.77;101331.94;671627;29;21508;-66
2021/08/10 01:04:08;;;;;;;3.10;2.80;;;;;;;16.72;71.69;101330.25;669963;29;70442;-66
2021/08/10 01:04:31;;;;;;;3.22;2.92;;;;;;;16.70;71.66;101327.72;669430;29;91626;-66
2021/08/10 01:04:54;;;;;;;3.03;2.80;;;;;;;16.70;71.81;101338.63;669888;29;23451;-66
2021/08/10 01:05:15;;;;;;;3.05;2.75;;;;;;;16.70;71.82;101333.19;667754;29;45096;-66
2021/08/10 01:05:37;;;;;;;3.05;2.78;;;;;;;16.67;72.06;101332.75;669741;29;45284;-66
2021/08/10 01:06:01;;;;;;;3.20;2.90;;;;;;;16.68;71.80;101331.72;670204;29;45297;-66
2021/08/10 01:06:40;;;;;;;3.00;2.80;;;;;;;16.67;71.99;101330.88;668767;29;92310;-66
2021/08/10 01:07:09;;;;;;;3.00;2.63;;;;;;;16.68;71.87;101326.28;670132;29;137396;-66
2021/08/10 01:07:39;;;;;;;2.95;2.65;;;;;;;16.67;72.01;101335.47;670052;29;60940;-66
2021/08/10 01:08:07;;;;;;;3.08;2.78;;;;;;;16.67;71.91;101333.59;673421;29;61764;-66
2021/08/10 01:08:39;;;;;;;3.00;2.80;;;;;;;16.67;71.96;101327.31;670754;29;138021;-66
2021/08/10 01:09:07;;;;;;;3.10;2.72;;;;;;;16.67;71.90;101335.47;671074;29;61262;-66
2021/08/10 01:09:35;;;;;;;3.42;2.88;;;;;;;16.66;71.87;101337.38;667891;29;133994;-66
2021/08/10 01:10:03;;;;;;;3.78;3.00;;;;;;;16.66;71.71;101336.53;666505;29;159258;-66
2021/08/10 01:10:30;;;;;;;4.22;3.05;;;;;;;16.66;71.82;101336.53;666577;29;136488;-66
2021/08/10 01:11:03;;;;;;;3.67;2.80;;;;;;;16.66;71.72;101334.66;666034;29;109030;-66
2021/08/10 01:11:30;;;;;;;2.83;2.63;;;;;;;16.66;71.71;101333.78;665441;29;137466;-66
2021/08/10 01:11:56;;;;;;;3.33;2.60;;;;;;;16.66;71.75;101336.53;666855;29;137845;-66
2021/08/10 01:12:20;;;;;;;3.22;2.63;;;;;;;16.63;71.97;101334.19;665035;29;127003;-65
2021/08/10 01:12:54;;;;;;;3.25;2.90;;;;;;;16.64;71.74;101330.44;666461;29;58676;-66
2021/08/10 01:13:18;;;;;;;2.85;2.65;;;;;;;16.63;71.62;101328.75;666034;29;137408;-67
2021/08/10 01:13:41;;;;;;;3.80;2.63;;;;;;;16.63;71.66;101328.75;667035;29;83853;-66
2021/08/10 01:14:08;;;;;;;3.60;3.05;;;;;;;16.64;71.69;101327.72;668752;29;65909;-66
2021/08/10 01:14:38;;;;;;;3.08;2.80;;;;;;;16.64;71.73;101341.34;664462;29;153423;-65
2021/08/10 01:15:01;;;;;;;2.90;2.70;;;;;;;16.62;71.67;101327.91;664582;29;135964;-66
2021/08/10 01:15:26;;;;;;;2.80;2.60;;;;;;;16.64;71.64;101327.72;663425;29;92169;-66
2021/08/10 01:15:57;;;;;;;3.00;2.80;;;;;;;16.65;71.63;101332.13;666416;29;92312;-66
2021/08/10 01:16:23;;;;;;;4.05;2.67;;;;;;;16.65;71.80;101334.84;666936;29;135909;-65
2021/08/10 01:16:51;;;;;;;3.55;2.85;;;;;;;16.64;71.53;101327.72;666978;29;138049;-66
2021/08/10 01:17:20;;;;;;;3.10;2.80;;;;;;;16.64;71.69;101333.16;669137;29;138022;-66
2021/08/10 01:17:44;;;;;;;3.05;2.75;;;;;;;16.64;71.76;101330.44;668043;29;136286;-66
2021/08/10 01:18:11;;;;;;;2.65;2.45;;;;;;;16.62;71.79;101319.72;665735;29;136514;-66
2021/08/10 01:18:41;;;;;;;3.10;2.80;;;;;;;16.61;71.59;101326.22;659682;29;159292;-66
2021/08/10 01:19:10;;;;;;;4.60;2.60;;;;;;;16.61;71.59;101328.94;665575;29;129716;-66
2021/08/10 01:19:47;;;;;;;3.20;2.80;;;;;;;16.60;71.79;101334.59;668098;29;137915;-66
2021/08/10 01:20:44;;;;;;;3.10;2.80;;;;;;;16.59;71.87;101331.03;669953;29;132442;-66
2021/08/10 01:21:23;;;;;;;2.85;2.65;;;;;;;16.57;71.71;101335.88;668962;29;180837;-66
2021/08/10 01:21:57;;;;;;;4.47;2.70;;;;;;;16.57;71.59;101331.25;669178;29;137716;-66
2021/08/10 01:22:21;;;;;;;2.95;2.65;;;;;;;16.56;71.81;101326.00;667943;29;109440;-66
2021/08/10 01:22:47;;;;;;;4.07;2.80;;;;;;;16.54;71.73;101328.91;666224;29;92457;-66
2021/08/10 01:23:12;;;;;;;3.03;2.47;;;;;;;16.55;71.77;101330.63;662161;29;138743;-66
2021/08/10 01:23:35;;;;;;;2.88;2.67;;;;;;;16.54;71.77;101334.38;662303;29;136443;-65
2021/08/10 01:24:02;;;;;;;2.90;2.70;;;;;;;16.55;71.76;101327.03;669946;29;44365;-66
2021/08/10 01:24:29;;;;;;;2.90;2.70;;;;;;;16.54;71.67;101331.66;666124;29;138040;-66
2021/08/10 01:24:58;;;;;;;3.58;2.70;;;;;;;16.53;71.80;101335.41;662174;29;160949;-66
2021/08/10 01:25:32;;;;;;;2.88;2.67;;;;;;;16.53;71.95;101334.56;661285;29;138393;-66
2021/08/10 01:26:03;;;;;;;4.03;2.50;;;;;;;16.50;71.70;101329.53;666617;29;137719;-67
2021/08/10 01:26:42;;;;;;;2.70;2.50;;;;;;;16.50;71.95;101330.34;670643;29;138573;-67
2021/08/10 01:27:19;;;;;;;3.35;2.70;;;;;;;16.50;72.06;101327.63;667955;29;133889;-66
2021/08/10 01:27:53;;;;;;;3.10;2.70;;;;;;;16.51;71.99;101331.22;662595;29;137434;-66
2021/08/10 01:28:32;;;;;;;2.60;2.40;;;;;;;16.50;71.90;101330.34;663296;29;154540;-66
2021/08/10 01:29:01;;;;;;;3.03;2.72;;;;;;;16.50;71.93;101330.34;666596;29;138026;-66
2021/08/10 01:29:29;;;;;;;2.72;2.53;;;;;;;16.50;71.98;101332.25;668331;29;137884;-66
2021/08/10 01:29:52;;;;;;;2.60;2.40;;;;;;;16.50;72.02;101334.97;668931;29;136100;-66
2021/08/10 01:30:18;;;;;;;2.65;2.45;;;;;;;16.51;72.09;101331.22;669236;29;114531;-66
2021/08/10 01:30:53;;;;;;;2.88;2.67;;;;;;;16.50;71.92;101327.63;670873;29;76370;-66
2021/08/10 01:31:21;;;;;;;5.13;2.70;;;;;;;16.52;71.77;101319.25;665601;29;156214;-66
2021/08/10 01:31:46;;;;;;;3.13;2.63;;;;;;;16.50;71.85;101316.72;666977;29;137204;-67
2021/08/10 01:32:10;;;;;;;2.70;2.60;;;;;;;16.51;71.90;101328.50;670534;29;1829;-66
2021/08/10 01:32:33;;;;;;;4.13;2.53;;;;;;;16.50;71.95;101319.44;667215;29;69635;-66
2021/08/10 01:32:55;;;;;;;3.72;2.60;;;;;;;16.49;71.97;101328.69;669302;29;69502;-66
2021/08/10 01:33:16;;;;;;;2.92;2.58;;;;;;;16.49;71.86;101320.50;673158;29;30450;-66
2021/08/10 01:33:41;;;;;;;3.15;2.80;;;;;;;16.47;71.91;101319.84;671242;29;57687;-66
2021/08/10 01:34:13;;;;;;;2.75;2.53;;;;;;;16.51;71.75;101328.50;670783;29;64468;-66
2021/08/10 01:34:37;;;;;;;2.92;2.72;;;;;;;16.51;71.82;101323.88;666354;29;134994;-66
2021/08/10 01:35:06;;;;;;;2.78;2.58;;;;;;;16.52;71.71;101325.56;666257;29;132459;-66
2021/08/10 01:35:35;;;;;;;2.90;2.60;;;;;;;16.51;71.94;101320.31;666545;29;60620;-66
2021/08/10 01:36:00;;;;;;;2.80;2.60;;;;;;;16.51;72.09;101326.59;666250;29;61447;-66
2021/08/10 01:36:23;;;;;;;2.95;2.75;;;;;;;16.51;72.02;101326.59;669354;29;1068;-66
2021/08/10 01:36:46;;;;;;;2.85;2.65;;;;;;;16.51;71.75;101325.78;664617;29;68486;-66
2021/08/10 01:37:12;;;;;;;3.38;2.78;;;;;;;16.50;71.71;101319.44;669183;29;2211;-65
2021/08/10 01:37:39;;;;;;;4.07;3.45;;;;;;;16.47;71.74;101322.56;666614;29;61170;-66
2021/08/10 01:38:06;;;;;;;3.92;3.53;;;;;;;16.45;71.80;101315.66;670002;29;61780;-66
2021/08/10 01:38:28;;;;;;;4.53;3.53;;;;;;;16.50;71.73;101318.63;666309;29;92555;-66
2021/08/10 01:38:53;;;;;;;3.30;3.00;;;;;;;16.49;71.81;101327.84;667214;29;68234;-66
2021/08/10 01:39:15;;;;;;;3.20;2.90;;;;;;;16.50;71.79;101321.34;668584;29;92765;-66
2021/08/10 01:39:51;;;;;;;3.35;2.92;;;;;;;16.51;71.72;101321.16;669786;29;136161;-66
2021/08/10 01:40:14;;;;;;;3.00;2.80;;;;;;;16.52;71.90;101321.97;667732;29;138735;-67
2021/08/10 01:40:49;;;;;;;3.35;2.70;;;;;;;16.52;71.72;101327.44;667424;29;138478;-67
2021/08/10 01:41:12;;;;;;;3.40;2.83;;;;;;;16.48;71.65;101316.09;665844;29;92362;-67
2021/08/10 01:41:35;;;;;;;3.35;2.50;;;;;;;16.53;71.51;101320.94;663676;29;90663;-67
2021/08/10 01:41:58;;;;;;;2.80;2.60;;;;;;;16.53;71.77;101321.78;662406;29;69468;-66
2021/08/10 01:42:20;;;;;;;2.72;2.60;;;;;;;16.53;71.47;101318.22;662715;29;44353;-66
2021/08/10 01:42:41;;;;;;;2.67;2.50;;;;;;;16.53;71.67;101318.22;663318;29;44377;-65
2021/08/10 01:43:06;;;;;;;2.75;2.55;;;;;;;16.51;71.33;101320.31;664518;29;46472;-65
2021/08/10 01:43:29;;;;;;;3.80;2.92;;;;;;;16.52;71.46;101316.53;665164;29;92598;-66
2021/08/10 01:43:51;;;;;;;2.92;2.67;;;;;;;16.51;71.46;101320.31;667948;29;68334;-66
2021/08/10 01:44:16;;;;;;;2.60;2.40;;;;;;;16.50;71.70;101324.91;669812;29;115076;-66
2021/08/10 01:44:39;;;;;;;3.75;2.50;;;;;;;16.49;71.56;101314.19;671761;29;46316;-66
2021/08/10 01:45:06;;;;;;;4.15;2.78;;;;;;;16.50;71.66;101324.06;668412;29;132985;-66
2021/08/10 01:45:28;;;;;;;3.15;2.85;;;;;;;16.48;71.74;101318.81;671991;29;88641;-66
2021/08/10 01:45:56;;;;;;;2.63;2.40;;;;;;;16.47;71.68;101322.56;668944;29;118091;-66
2021/08/10 01:46:23;;;;;;;3.15;2.85;;;;;;;16.47;71.49;101314.41;667089;29;92370;-66
2021/08/10 01:46:46;;;;;;;3.05;2.67;;;;;;;16.47;71.74;101319.03;667214;29;105574;-66
2021/08/10 01:47:08;;;;;;;3.20;2.70;;;;;;;16.48;71.57;101321.53;666928;29;44970;-66
2021/08/10 01:47:31;;;;;;;3.55;3.25;;;;;;;16.46;71.67;101317.38;663446;29;69724;-67
2021/08/10 01:47:55;;;;;;;3.25;2.95;;;;;;;16.45;71.64;101318.41;665110;29;83068;-66
2021/08/10 01:48:17;;;;;;;2.83;2.63;;;;;;;16.44;71.59;101319.44;669628;29;44093;-66
2021/08/10 01:48:39;;;;;;;3.00;2.70;;;;;;;16.44;71.58;101309.38;670453;29;69866;-66
2021/08/10 01:49:04;;;;;;;2.85;2.63;;;;;;;16.43;71.46;101315.88;668593;29;86339;-66
2021/08/10 01:49:26;;;;;;;2.85;2.65;;;;;;;16.44;71.75;101320.28;668053;29;70323;-67
2021/08/10 01:49:48;;;;;;;3.03;2.80;;;;;;;16.44;71.55;101316.69;667492;29;46344;-66
2021/08/10 01:50:10;;;;;;;3.55;2.63;;;;;;;16.44;71.64;101319.44;666981;29;3129;-66
2021/08/10 01:50:38;;;;;;;3.00;2.80;;;;;;;16.42;71.55;101318.78;660652;29;159155;-67
2021/08/10 01:51:05;;;;;;;2.70;2.50;;;;;;;16.42;71.73;101319.63;665313;29;137698;-66
2021/08/10 01:51:28;;;;;;;2.75;2.55;;;;;;;16.43;71.69;101315.03;668977;29;44377;-66
2021/08/10 01:51:51;;;;;;;3.53;2.87;;;;;;;16.38;71.70;101311.03;669597;29;67310;-67
2021/08/10 01:52:19;;;;;;;3.72;2.75;;;;;;;16.42;71.51;101322.34;670076;29;113316;-66
2021/08/10 01:52:43;;;;;;;2.78;2.58;;;;;;;16.43;71.72;101313.13;667968;29;132424;-66